sensor_id;sensor_type;location;lat;lon;timestamp;pressure;altitude;pressure_sealevel;temperature;humidity
17950;BME280;9100;48.700;9.316;2022-12-18T00:00:11;98838.2;;;-5.97;100
17950;BME280;9100;48.700;9.316;2022-12-18T00:01:14;98837.40000000001;;;-5.97;100
17950;BME280;9100;48.700;9.316;2022-12-18T00:02:10;98839.9;;;-5.99;100
17950;BME280;9100;48.700;9.316;2022-12-18T00:03:10;98846.6;;;-6.01;100
17950;BME280;9100;48.700;9.316;2022-12-18T00:03:33;98835;;;-6.02;100
17950;BME280;9100;48.700;9.316;2022-12-18T00:04:14;98837.59999999999;;;-6.03;100
17950;BME280;9100;48.700;9.316;2022-12-18T00:05:10;98836.8;;;-6.04;100
17950;BME280;9100;48.700;9.316;2022-12-18T00:06:10;98840.09999999999;;;-6.03;100
17950;BME280;9100;48.700;9.316;2022-12-18T00:07:10;98842.6;;;-6.03;100
17950;BME280;9100;48.700;9.316;2022-12-18T00:08:10;98845.1;;;-6.05;100
17950;BME280;9100;48.700;9.316;2022-12-18T00:08:33;98841;;;-6.06;100
17950;BME280;9100;48.700;9.316;2022-12-18T00:09:10;98853.4;;;-6.04;100
17950;BME280;9100;48.700;9.316;2022-12-18T00:10:10;98857.6;;;-6.05;100
17950;BME280;9100;48.700;9.316;2022-12-18T00:11:11;98851.70000000001;;;-6.04;100
17950;BME280;9100;48.700;9.316;2022-12-18T00:12:10;98855.8;;;-6.03;100
17950;BME280;9100;48.700;9.316;2022-12-18T00:13:10;98850.8;;;-6.01;100
17950;BME280;9100;48.700;9.316;2022-12-18T00:13:33;98848.29999999999;;;-6;100
17950;BME280;9100;48.700;9.316;2022-12-18T00:14:11;98853.2;;;-5.98;100
17950;BME280;9100;48.700;9.316;2022-12-18T00:15:10;98854.8;;;-5.96;100
17950;BME280;9100;48.700;9.316;2022-12-18T00:16:11;98849.8;;;-5.96;100
17950;BME280;9100;48.700;9.316;2022-12-18T00:17:10;98856.5;;;-5.96;100
17950;BME280;9100;48.700;9.316;2022-12-18T00:18:10;98853.3;;;-6;100
17950;BME280;9100;48.700;9.316;2022-12-18T00:18:33;98853.3;;;-6;100
17950;BME280;9100;48.700;9.316;2022-12-18T00:19:10;98844.2;;;-6.01;100
17950;BME280;9100;48.700;9.316;2022-12-18T00:20:11;98847.6;;;-6.03;100
17950;BME280;9100;48.700;9.316;2022-12-18T00:21:11;98849.3;;;-6.05;100
17950;BME280;9100;48.700;9.316;2022-12-18T00:22:10;98846;;;-6.07;100
17950;BME280;9100;48.700;9.316;2022-12-18T00:23:10;98853.5;;;-6.09;100
17950;BME280;9100;48.700;9.316;2022-12-18T00:23:33;98842.8;;;-6.11;100
17950;BME280;9100;48.700;9.316;2022-12-18T00:24:10;98849.5;;;-6.13;100
17950;BME280;9100;48.700;9.316;2022-12-18T00:25:10;98857;;;-6.14;100
17950;BME280;9100;48.700;9.316;2022-12-18T00:26:11;98861.2;;;-6.16;100
17950;BME280;9100;48.700;9.316;2022-12-18T00:27:10;98861.3;;;-6.19;100
17950;BME280;9100;48.700;9.316;2022-12-18T00:28:10;98858.90000000001;;;-6.21;100
17950;BME280;9100;48.700;9.316;2022-12-18T00:28:33;98860.6;;;-6.24;100
17950;BME280;9100;48.700;9.316;2022-12-18T00:29:11;98865.59999999999;;;-6.24;100
17950;BME280;9100;48.700;9.316;2022-12-18T00:30:10;98866.6;;;-6.28;100
17950;BME280;9100;48.700;9.316;2022-12-18T00:31:11;98868.3;;;-6.3;100
17950;BME280;9100;48.700;9.316;2022-12-18T00:32:10;98863.4;;;-6.32;100
17950;BME280;9100;48.700;9.316;2022-12-18T00:33:10;98854.3;;;-6.33;100
17950;BME280;9100;48.700;9.316;2022-12-18T00:33:33;98853.5;;;-6.33;100
17950;BME280;9100;48.700;9.316;2022-12-18T00:34:11;98860.90000000001;;;-6.32;100
17950;BME280;9100;48.700;9.316;2022-12-18T00:35:10;98856.7;;;-6.31;100
17950;BME280;9100;48.700;9.316;2022-12-18T00:36:12;98860.79999999999;;;-6.29;100
17950;BME280;9100;48.700;9.316;2022-12-18T00:37:11;98852.5;;;-6.29;100
17950;BME280;9100;48.700;9.316;2022-12-18T00:38:10;98859.2;;;-6.3;100
17950;BME280;9100;48.700;9.316;2022-12-18T00:38:33;98853.4;;;-6.3;100
17950;BME280;9100;48.700;9.316;2022-12-18T00:39:11;98855.9;;;-6.3;100
17950;BME280;9100;48.700;9.316;2022-12-18T00:40:11;98851.70000000001;;;-6.3;100
17950;BME280;9100;48.700;9.316;2022-12-18T00:41:11;98857.5;;;-6.31;100
17950;BME280;9100;48.700;9.316;2022-12-18T00:42:10;98861.7;;;-6.31;100
17950;BME280;9100;48.700;9.316;2022-12-18T00:43:10;98854.3;;;-6.33;100
17950;BME280;9100;48.700;9.316;2022-12-18T00:43:33;98855.9;;;-6.32;100
17950;BME280;9100;48.700;9.316;2022-12-18T00:44:11;98861.7;;;-6.31;100
17950;BME280;9100;48.700;9.316;2022-12-18T00:45:10;98865.8;;;-6.32;100
17950;BME280;9100;48.700;9.316;2022-12-18T00:46:10;98865;;;-6.31;100
17950;BME280;9100;48.700;9.316;2022-12-18T00:47:10;98869.1;;;-6.31;100
17950;BME280;9100;48.700;9.316;2022-12-18T00:48:10;98870;;;-6.32;100
17950;BME280;9100;48.700;9.316;2022-12-18T00:48:32;98869.2;;;-6.33;100
17950;BME280;9100;48.700;9.316;2022-12-18T00:49:10;98870.8;;;-6.32;100
17950;BME280;9100;48.700;9.316;2022-12-18T00:50:10;98868.4;;;-6.33;100
17950;BME280;9100;48.700;9.316;2022-12-18T00:51:10;98872.5;;;-6.34;100
17950;BME280;9100;48.700;9.316;2022-12-18T00:52:10;98871.8;;;-6.36;100
17950;BME280;9100;48.700;9.316;2022-12-18T00:53:10;98861.90000000001;;;-6.39;100
17950;BME280;9100;48.700;9.316;2022-12-18T00:53:32;98866.9;;;-6.41;100
17950;BME280;9100;48.700;9.316;2022-12-18T00:54:10;98872.79999999999;;;-6.42;100
17950;BME280;9100;48.700;9.316;2022-12-18T00:55:10;98876.9;;;-6.42;100
17950;BME280;9100;48.700;9.316;2022-12-18T00:56:11;98876.2;;;-6.44;100
17950;BME280;9100;48.700;9.316;2022-12-18T00:57:10;98876.2;;;-6.44;100
17950;BME280;9100;48.700;9.316;2022-12-18T00:58:11;98874.5;;;-6.45;100
17950;BME280;9100;48.700;9.316;2022-12-18T00:58:32;98876.2;;;-6.46;100
17950;BME280;9100;48.700;9.316;2022-12-18T00:59:10;98867.9;;;-6.46;100
17950;BME280;9100;48.700;9.316;2022-12-18T01:00:11;98861.3;;;-6.46;100
17950;BME280;9100;48.700;9.316;2022-12-18T01:01:10;98874.5;;;-6.45;100
17950;BME280;9100;48.700;9.316;2022-12-18T01:02:10;98862.90000000001;;;-6.46;100
17950;BME280;9100;48.700;9.316;2022-12-18T01:03:11;98864.70000000001;;;-6.48;100
17950;BME280;9100;48.700;9.316;2022-12-18T01:03:32;98865.5;;;-6.48;100
17950;BME280;9100;48.700;9.316;2022-12-18T01:04:10;98863.9;;;-6.49;100
17950;BME280;9100;48.700;9.316;2022-12-18T01:05:11;98869.7;;;-6.48;100
17950;BME280;9100;48.700;9.316;2022-12-18T01:06:11;98868;;;-6.51;100
17950;BME280;9100;48.700;9.316;2022-12-18T01:07:10;98875.5;;;-6.49;100
17950;BME280;9100;48.700;9.316;2022-12-18T01:12:10;98876.8;;;-6.65;100
17950;BME280;9100;48.700;9.316;2022-12-18T01:13:10;98872.79999999999;;;-6.72;100
17950;BME280;9100;48.700;9.316;2022-12-18T11:28:25;98920.1;;;-2.34;99.93
17950;BME280;9100;48.700;9.316;2022-12-18T11:29:16;98899.59999999999;;;-2.4;99.852
17950;BME280;9100;48.700;9.316;2022-12-18T11:30:09;98920.1;;;-2.32;100
17950;BME280;9100;48.700;9.316;2022-12-18T11:30:21;98914.3;;;-2.33;100
17950;BME280;9100;48.700;9.316;2022-12-18T11:31:16;98909.3;;;-2.33;100
17950;BME280;9100;48.700;9.316;2022-12-18T11:32:19;98916.8;;;-2.33;100
17950;BME280;9100;48.700;9.316;2022-12-18T11:33:12;98857.3;;;-2.65;100
17950;BME280;9100;48.700;9.316;2022-12-18T11:34:12;98911.7;;;-2.31;100
17950;BME280;9100;48.700;9.316;2022-12-18T11:35:04;98909.3;;;-2.33;100
17950;BME280;9100;48.700;9.316;2022-12-18T11:35:13;98904.2;;;-2.33;100
17950;BME280;9100;48.700;9.316;2022-12-18T11:36:11;98900.9;;;-2.32;100
17950;BME280;9100;48.700;9.316;2022-12-18T11:37:11;98901.70000000001;;;-2.31;100
17950;BME280;9100;48.700;9.316;2022-12-18T11:38:13;98892.5;;;-2.31;100
17950;BME280;9100;48.700;9.316;2022-12-18T11:39:12;98896.7;;;-2.31;100
17950;BME280;9100;48.700;9.316;2022-12-18T11:40:03;98893.3;;;-2.3;100
17950;BME280;9100;48.700;9.316;2022-12-18T11:40:12;98899.1;;;-2.3;100
17950;BME280;9100;48.700;9.316;2022-12-18T11:41:13;98904.1;;;-2.3;100
17950;BME280;9100;48.700;9.316;2022-12-18T11:42:12;98909.90000000001;;;-2.29;100
17950;BME280;9100;48.700;9.316;2022-12-18T11:43:13;98908.2;;;-2.29;100
17950;BME280;9100;48.700;9.316;2022-12-18T11:44:11;98909.1;;;-2.3;100
17950;BME280;9100;48.700;9.316;2022-12-18T11:45:03;98899.1;;;-2.3;100
17950;BME280;9100;48.700;9.316;2022-12-18T11:45:23;98905.7;;;-2.29;100
17950;BME280;9100;48.700;9.316;2022-12-18T11:46:12;98897.29999999999;;;-2.28;100
17950;BME280;9100;48.700;9.316;2022-12-18T11:47:13;98898.1;;;-2.26;100
17950;BME280;9100;48.700;9.316;2022-12-18T11:48:12;98898.8;;;-2.24;100
17950;BME280;9100;48.700;9.316;2022-12-18T11:49:12;98894.5;;;-2.22;100
17950;BME280;9100;48.700;9.316;2022-12-18T11:50:02;98892.9;;;-2.21;100
17950;BME280;9100;48.700;9.316;2022-12-18T11:50:12;98887.90000000001;;;-2.23;100
17950;BME280;9100;48.700;9.316;2022-12-18T11:51:12;98891.09999999999;;;-2.19;100
17950;BME280;9100;48.700;9.316;2022-12-18T11:52:14;98895.2;;;-2.17;100
17950;BME280;9100;48.700;9.316;2022-12-18T11:53:11;98884.2;;;-2.14;100
17950;BME280;9100;48.700;9.316;2022-12-18T11:54:11;98884.2;;;-2.14;100
17950;BME280;9100;48.700;9.316;2022-12-18T11:55:04;98888.3;;;-2.13;100
17950;BME280;9100;48.700;9.316;2022-12-18T11:55:12;98887.5;;;-2.12;100
17950;BME280;9100;48.700;9.316;2022-12-18T11:56:16;98884;;;-2.11;100
17950;BME280;9100;48.700;9.316;2022-12-18T11:57:13;98886.5;;;-2.1;100
17950;BME280;9100;48.700;9.316;2022-12-18T11:58:12;98885.6;;;-2.09;100
17950;BME280;9100;48.700;9.316;2022-12-18T11:59:13;98885.5;;;-2.07;100
17950;BME280;9100;48.700;9.316;2022-12-18T12:00:03;98891.4;;;-2.07;100
17950;BME280;9100;48.700;9.316;2022-12-18T12:00:12;98884.7;;;-2.08;100
17950;BME280;9100;48.700;9.316;2022-12-18T12:01:13;98879.7;;;-2.08;100
17950;BME280;9100;48.700;9.316;2022-12-18T12:02:15;98883;;;-2.06;100
17950;BME280;9100;48.700;9.316;2022-12-18T12:03:34;98890.5;;;-2.06;100
17950;BME280;9100;48.700;9.316;2022-12-18T12:04:16;98883.8;;;-2.05;100
17950;BME280;9100;48.700;9.316;2022-12-18T12:05:04;98888;;;-2.06;100
17950;BME280;9100;48.700;9.316;2022-12-18T12:05:16;98883.8;;;-2.05;100
17950;BME280;9100;48.700;9.316;2022-12-18T12:06:13;98880.5;;;-2.06;100
17950;BME280;9100;48.700;9.316;2022-12-18T12:07:15;98887.8;;;-2.03;100
17950;BME280;9100;48.700;9.316;2022-12-18T12:08:12;98882;;;-2.03;100
17950;BME280;9100;48.700;9.316;2022-12-18T12:09:12;98881;;;-2.01;100
17950;BME280;9100;48.700;9.316;2022-12-18T12:10:04;98878.5;;;-2.01;100
17950;BME280;9100;48.700;9.316;2022-12-18T12:10:15;98878.5;;;-2.01;100
17950;BME280;9100;48.700;9.316;2022-12-18T12:11:12;98870.9;;;-1.98;100
17950;BME280;9100;48.700;9.316;2022-12-18T12:12:15;98872.5;;;-1.97;100
17950;BME280;9100;48.700;9.316;2022-12-18T12:13:15;98870.8;;;-1.94;100
17950;BME280;9100;48.700;9.316;2022-12-18T12:14:15;98867.3;;;-1.93;100
17950;BME280;9100;48.700;9.316;2022-12-18T12:15:03;98861.5;;;-1.92;100
17950;BME280;9100;48.700;9.316;2022-12-18T12:15:13;98864;;;-1.92;100
17950;BME280;9100;48.700;9.316;2022-12-18T12:16:14;98861.5;;;-1.92;100
17950;BME280;9100;48.700;9.316;2022-12-18T12:17:12;98860.6;;;-1.91;100
17950;BME280;9100;48.700;9.316;2022-12-18T12:18:14;98860.6;;;-1.91;100
17950;BME280;9100;48.700;9.316;2022-12-18T12:19:15;98858.1;;;-1.91;100
17950;BME280;9100;48.700;9.316;2022-12-18T12:20:02;98860.6;;;-1.91;100
17950;BME280;9100;48.700;9.316;2022-12-18T12:20:13;98852.20000000001;;;-1.9;100
17950;BME280;9100;48.700;9.316;2022-12-18T12:21:14;98852.20000000001;;;-1.9;100
17950;BME280;9100;48.700;9.316;2022-12-18T12:22:13;98858;;;-1.9;100
17950;BME280;9100;48.700;9.316;2022-12-18T12:23:13;98856.4;;;-1.91;100
17950;BME280;9100;48.700;9.316;2022-12-18T12:24:15;98857.3;;;-1.92;100
17950;BME280;9100;48.700;9.316;2022-12-18T12:25:05;98855.6;;;-1.91;100
17950;BME280;9100;48.700;9.316;2022-12-18T12:25:18;98855.6;;;-1.91;100
17950;BME280;9100;48.700;9.316;2022-12-18T12:26:12;98853.8;;;-1.89;100
17950;BME280;9100;48.700;9.316;2022-12-18T12:27:14;98850.3;;;-1.87;100
17950;BME280;9100;48.700;9.316;2022-12-18T12:28:14;98846.90000000001;;;-1.86;100
17950;BME280;9100;48.700;9.316;2022-12-18T12:29:16;98848.7;;;-1.86;100
17950;BME280;9100;48.700;9.316;2022-12-18T12:30:03;98850.2;;;-1.84;100
17950;BME280;9100;48.700;9.316;2022-12-18T12:30:13;98848.6;;;-1.85;100
17950;BME280;9100;48.700;9.316;2022-12-18T12:31:12;98845.1;;;-1.82;100
17950;BME280;9100;48.700;9.316;2022-12-18T12:32:15;98856.7;;;-1.81;100
17950;BME280;9100;48.700;9.316;2022-12-18T12:33:14;98850;;;-1.79;100
17950;BME280;9100;48.700;9.316;2022-12-18T12:34:13;98849.90000000001;;;-1.78;100
17950;BME280;9100;48.700;9.316;2022-12-18T12:35:05;98854;;;-1.77;100
17950;BME280;9100;48.700;9.316;2022-12-18T12:35:14;98855.7;;;-1.77;100
17950;BME280;9100;48.700;9.316;2022-12-18T12:36:13;98857.3;;;-1.76;100
17950;BME280;9100;48.700;9.316;2022-12-18T12:37:15;98855.6;;;-1.74;100
17950;BME280;9100;48.700;9.316;2022-12-18T12:38:12;98853.8;;;-1.72;100
17950;BME280;9100;48.700;9.316;2022-12-18T12:39:11;98855.5;;;-1.71;100
17950;BME280;9100;48.700;9.316;2022-12-18T12:40:02;98854.5;;;-1.7;100
17950;BME280;9100;48.700;9.316;2022-12-18T12:40:11;98852;;;-1.7;100
17950;BME280;9100;48.700;9.316;2022-12-18T12:41:12;98852.8;;;-1.68;100
17950;BME280;9100;48.700;9.316;2022-12-18T12:42:12;98851.2;;;-1.69;100
17950;BME280;9100;48.700;9.316;2022-12-18T12:43:16;98851.9;;;-1.67;100
17950;BME280;9100;48.700;9.316;2022-12-18T12:44:13;98847.79999999999;;;-1.68;100
17950;BME280;9100;48.700;9.316;2022-12-18T12:45:03;98852.8;;;-1.68;100
17950;BME280;9100;48.700;9.316;2022-12-18T12:45:14;98848.6;;;-1.68;100
17950;BME280;9100;48.700;9.316;2022-12-18T12:46:11;98855.2;;;-1.67;100
17950;BME280;9100;48.700;9.316;2022-12-18T12:47:12;98848.5;;;-1.66;100
17950;BME280;9100;48.700;9.316;2022-12-18T12:48:13;98855;;;-1.64;100
17950;BME280;9100;48.700;9.316;2022-12-18T12:49:11;98858.4;;;-1.63;100
17950;BME280;9100;48.700;9.316;2022-12-18T12:50:03;98852.5;;;-1.64;100
17950;BME280;9100;48.700;9.316;2022-12-18T12:50:13;98853.4;;;-1.63;100
17950;BME280;9100;48.700;9.316;2022-12-18T12:51:13;98852.5;;;-1.62;100
17950;BME280;9100;48.700;9.316;2022-12-18T12:52:12;98843.3;;;-1.62;100
17950;BME280;9100;48.700;9.316;2022-12-18T12:53:14;98848.2;;;-1.6;100
17950;BME280;9100;48.700;9.316;2022-12-18T12:54:12;98838.2;;;-1.6;100
17950;BME280;9100;48.700;9.316;2022-12-18T12:55:02;98842.3;;;-1.59;100
17950;BME280;9100;48.700;9.316;2022-12-18T12:55:13;98839.9;;;-1.61;100
17950;BME280;9100;48.700;9.316;2022-12-18T12:56:11;98844.8;;;-1.59;100
17950;BME280;9100;48.700;9.316;2022-12-18T12:57:12;98845.6;;;-1.57;100
17950;BME280;9100;48.700;9.316;2022-12-18T12:58:14;98853;;;-1.56;100
17950;BME280;9100;48.700;9.316;2022-12-18T12:59:13;98852.20000000001;;;-1.56;100
17950;BME280;9100;48.700;9.316;2022-12-18T13:00:03;98860.5;;;-1.54;100
17950;BME280;9100;48.700;9.316;2022-12-18T13:00:11;98862.09999999999;;;-1.53;100
17950;BME280;9100;48.700;9.316;2022-12-18T13:01:13;98857.1;;;-1.53;100
17950;BME280;9100;48.700;9.316;2022-12-18T13:02:13;98860.29999999999;;;-1.51;100
17950;BME280;9100;48.700;9.316;2022-12-18T13:03:12;98858.6;;;-1.51;100
17950;BME280;9100;48.700;9.316;2022-12-18T13:04:14;98862.8;;;-1.5;100
17950;BME280;9100;48.700;9.316;2022-12-18T13:05:02;98863.59999999999;;;-1.49;100
17950;BME280;9100;48.700;9.316;2022-12-18T13:05:16;98856.9;;;-1.5;100
17950;BME280;9100;48.700;9.316;2022-12-18T13:06:12;98860.2;;;-1.48;100
17950;BME280;9100;48.700;9.316;2022-12-18T13:07:12;98866.8;;;-1.47;100
17950;BME280;9100;48.700;9.316;2022-12-18T13:08:12;98867.6;;;-1.47;100
17950;BME280;9100;48.700;9.316;2022-12-18T13:09:11;98862.59999999999;;;-1.47;100
17950;BME280;9100;48.700;9.316;2022-12-18T13:10:13;98864.3;;;-1.47;100
17950;BME280;9100;48.700;9.316;2022-12-18T13:10:35;98865.09999999999;;;-1.47;100
17950;BME280;9100;48.700;9.316;2022-12-18T13:11:12;98872.5;;;-1.45;100
17950;BME280;9100;48.700;9.316;2022-12-18T13:12:11;98866.6;;;-1.44;100
17950;BME280;9100;48.700;9.316;2022-12-18T13:13:11;98863.3;;;-1.43;100
17950;BME280;9100;48.700;9.316;2022-12-18T13:14:19;98868.1;;;-1.4;100
17950;BME280;9100;48.700;9.316;2022-12-18T13:15:11;98868.1;;;-1.38;100
17950;BME280;9100;48.700;9.316;2022-12-18T13:15:12;98863;;;-1.38;100
17950;BME280;9100;48.700;9.316;2022-12-18T13:16:11;98865.5;;;-1.37;100
17950;BME280;9100;48.700;9.316;2022-12-18T13:17:15;98866.4;;;-1.38;100
17950;BME280;9100;48.700;9.316;2022-12-18T13:18:13;98862.09999999999;;;-1.36;100
17950;BME280;9100;48.700;9.316;2022-12-18T13:19:18;98863.7;;;-1.35;100
17950;BME280;9100;48.700;9.316;2022-12-18T13:20:03;98872.1;;;-1.36;100
17950;BME280;9100;48.700;9.316;2022-12-18T13:20:12;98863.7;;;-1.35;100
17950;BME280;9100;48.700;9.316;2022-12-18T13:21:13;98871.2;;;-1.35;100
17950;BME280;9100;48.700;9.316;2022-12-18T13:22:28;98870.3;;;-1.34;100
17950;BME280;9100;48.700;9.316;2022-12-18T13:23:19;98860.29999999999;;;-1.34;100
17950;BME280;9100;48.700;9.316;2022-12-18T13:24:15;98867.8;;;-1.34;100
17950;BME280;9100;48.700;9.316;2022-12-18T13:25:20;98871.2;;;-1.35;100
17950;BME280;9100;48.700;9.316;2022-12-18T13:25:28;98871.2;;;-1.35;100
17950;BME280;9100;48.700;9.316;2022-12-18T13:26:43;98871.1;;;-1.33;100
17950;BME280;9100;48.700;9.316;2022-12-18T13:27:26;98883.6;;;-1.3;100
17950;BME280;9100;48.700;9.316;2022-12-18T13:28:12;98874.3;;;-1.3;100
17950;BME280;9100;48.700;9.316;2022-12-18T13:29:11;98879.3;;;-1.3;100
17950;BME280;9100;48.700;9.316;2022-12-18T13:30:02;98873.6;;;-1.32;100
17950;BME280;9100;48.700;9.316;2022-12-18T13:30:34;98871;;;-1.3;100
17950;BME280;9100;48.700;9.316;2022-12-18T13:31:11;98866;;;-1.32;100
17950;BME280;9100;48.700;9.316;2022-12-18T13:32:19;98867.7;;;-1.31;100
17950;BME280;9100;48.700;9.316;2022-12-18T13:33:44;98864.4;;;-1.31;100
17950;BME280;9100;48.700;9.316;2022-12-18T13:34:14;98865.20000000001;;;-1.32;100
17950;BME280;9100;48.700;9.316;2022-12-18T13:35:36;98859.5;;;-1.34;100
17950;BME280;9100;48.700;9.316;2022-12-18T13:35:51;98865.3;;;-1.34;100
17950;BME280;9100;48.700;9.316;2022-12-18T13:36:13;98858.7;;;-1.35;100
17950;BME280;9100;48.700;9.316;2022-12-18T13:37:44;98857;;;-1.36;100
17950;BME280;9100;48.700;9.316;2022-12-18T13:38:20;98851.3;;;-1.38;100
17950;BME280;9100;48.700;9.316;2022-12-18T13:39:22;98863.9;;;-1.39;100
17950;BME280;9100;48.700;9.316;2022-12-18T13:40:02;98861.5;;;-1.41;100
17950;BME280;9100;48.700;9.316;2022-12-18T13:41:27;98854.9;;;-1.43;100
17950;BME280;9100;48.700;9.316;2022-12-18T13:42:43;98861.6;;;-1.44;100
17950;BME280;9100;48.700;9.316;2022-12-18T13:43:20;98860.79999999999;;;-1.44;100
17950;BME280;9100;48.700;9.316;2022-12-18T13:44:11;98849.2;;;-1.47;100
17950;BME280;9100;48.700;9.316;2022-12-18T13:45:01;98855;;;-1.45;100
17950;BME280;9100;48.700;9.316;2022-12-18T13:45:31;98854.3;;;-1.47;100
17950;BME280;9100;48.700;9.316;2022-12-18T13:46:19;98853.4;;;-1.46;100
17950;BME280;9100;48.700;9.316;2022-12-18T13:47:24;98851.8;;;-1.47;100
17950;BME280;9100;48.700;9.316;2022-12-18T13:48:14;98857.6;;;-1.47;100
17950;BME280;9100;48.700;9.316;2022-12-18T13:49:18;98853.5;;;-1.49;100
17950;BME280;9100;48.700;9.316;2022-12-18T13:50:02;98851.9;;;-1.5;100
17950;BME280;9100;48.700;9.316;2022-12-18T13:50:18;98853.5;;;-1.49;100
17950;BME280;9100;48.700;9.316;2022-12-18T13:51:11;98857.7;;;-1.5;100
17950;BME280;9100;48.700;9.316;2022-12-18T13:52:15;98857.9;;;-1.53;100
17950;BME280;9100;48.700;9.316;2022-12-18T13:53:13;98797.7;;;-1.87;100
17950;BME280;9100;48.700;9.316;2022-12-18T13:54:13;98852.9;;;-1.54;100
17950;BME280;9100;48.700;9.316;2022-12-18T13:55:02;98848.8;;;-1.55;100
17950;BME280;9100;48.700;9.316;2022-12-18T13:55:14;98849.59999999999;;;-1.55;100
17950;BME280;9100;48.700;9.316;2022-12-18T13:56:14;98843.8;;;-1.55;100
17950;BME280;9100;48.700;9.316;2022-12-18T13:57:24;98849.7;;;-1.56;100
17950;BME280;9100;48.700;9.316;2022-12-18T13:58:11;98849.7;;;-1.56;100
17950;BME280;9100;48.700;9.316;2022-12-18T13:59:13;98848.90000000001;;;-1.58;100
17950;BME280;9100;48.700;9.316;2022-12-18T14:00:16;98852.3;;;-1.59;100
17950;BME280;9100;48.700;9.316;2022-12-18T14:00:16;98854.8;;;-1.59;100
17950;BME280;9100;48.700;9.316;2022-12-18T14:01:23;98847.40000000001;;;-1.61;100
17950;BME280;9100;48.700;9.316;2022-12-18T14:02:12;98848.2;;;-1.6;100
17950;BME280;9100;48.700;9.316;2022-12-18T14:03:16;98847.40000000001;;;-1.61;100
17950;BME280;9100;48.700;9.316;2022-12-18T14:04:11;98854.2;;;-1.63;100
17950;BME280;9100;48.700;9.316;2022-12-18T14:05:01;98856.6;;;-1.61;100
17950;BME280;9100;48.700;9.316;2022-12-18T14:05:20;98853.2;;;-1.6;100
17950;BME280;9100;48.700;9.316;2022-12-18T14:06:11;98850.7;;;-1.6;100
17950;BME280;9100;48.700;9.316;2022-12-18T14:07:12;98853.2;;;-1.6;100
17950;BME280;9100;48.700;9.316;2022-12-18T14:08:12;98852.3;;;-1.59;100
17950;BME280;9100;48.700;9.316;2022-12-18T14:09:13;98857.5;;;-1.62;100
17950;BME280;9100;48.700;9.316;2022-12-18T14:10:02;98857.5;;;-1.62;100
17950;BME280;9100;48.700;9.316;2022-12-18T14:10:11;98857.5;;;-1.62;100
17950;BME280;9100;48.700;9.316;2022-12-18T14:11:18;98857.6;;;-1.64;100
17950;BME280;9100;48.700;9.316;2022-12-18T14:12:14;98859.3;;;-1.64;100
17950;BME280;9100;48.700;9.316;2022-12-18T14:13:14;98859.3;;;-1.64;100
17950;BME280;9100;48.700;9.316;2022-12-18T14:14:12;98850.09999999999;;;-1.65;100
17950;BME280;9100;48.700;9.316;2022-12-18T14:15:02;98856;;;-1.65;100
17950;BME280;9100;48.700;9.316;2022-12-18T14:15:14;98852.59999999999;;;-1.65;100
17950;BME280;9100;48.700;9.316;2022-12-18T14:16:12;98853.5;;;-1.65;100
17950;BME280;9100;48.700;9.316;2022-12-18T14:17:11;98857.5;;;-1.62;100
17950;BME280;9100;48.700;9.316;2022-12-18T14:18:15;98860.90000000001;;;-1.63;100
17950;BME280;9100;48.700;9.316;2022-12-18T14:19:12;98860.90000000001;;;-1.63;100
17950;BME280;9100;48.700;9.316;2022-12-18T14:20:02;98865.9;;;-1.63;100
17950;BME280;9100;48.700;9.316;2022-12-18T14:20:12;98865;;;-1.62;100
17950;BME280;9100;48.700;9.316;2022-12-18T14:21:20;98868.3;;;-1.62;100
17950;BME280;9100;48.700;9.316;2022-12-18T14:22:15;98863.4;;;-1.63;100
17950;BME280;9100;48.700;9.316;2022-12-18T14:23:24;98865.09999999999;;;-1.64;100
17950;BME280;9100;48.700;9.316;2022-12-18T14:24:13;98870.2;;;-1.65;100
17950;BME280;9100;48.700;9.316;2022-12-18T14:25:10;98866;;;-1.66;100
17950;BME280;9100;48.700;9.316;2022-12-18T14:25:15;98861;;;-1.66;100
17950;BME280;9100;48.700;9.316;2022-12-18T14:26:27;98854.4;;;-1.67;100
17950;BME280;9100;48.700;9.316;2022-12-18T14:27:12;98861;;;-1.66;100
17950;BME280;9100;48.700;9.316;2022-12-18T14:28:12;98858.5;;;-1.66;100
17950;BME280;9100;48.700;9.316;2022-12-18T14:29:27;98861;;;-1.66;100
17950;BME280;9100;48.700;9.316;2022-12-18T14:30:03;98862.7;;;-1.67;100
17950;BME280;9100;48.700;9.316;2022-12-18T14:30:23;98857.8;;;-1.68;100
17950;BME280;9100;48.700;9.316;2022-12-18T14:31:16;98864.4;;;-1.67;100
17950;BME280;9100;48.700;9.316;2022-12-18T14:32:11;98852.59999999999;;;-1.65;100
17950;BME280;9100;48.700;9.316;2022-12-18T14:33:12;98860.2;;;-1.67;100
17950;BME280;9100;48.700;9.316;2022-12-18T14:34:14;98859.40000000001;;;-1.67;100
17950;BME280;9100;48.700;9.316;2022-12-18T14:35:12;98867.7;;;-1.67;100
17950;BME280;9100;48.700;9.316;2022-12-18T14:35:12;98856.9;;;-1.67;100
17950;BME280;9100;48.700;9.316;2022-12-18T14:36:14;98860.2;;;-1.67;100
17950;BME280;9100;48.700;9.316;2022-12-18T14:37:12;98866;;;-1.66;100
17950;BME280;9100;48.700;9.316;2022-12-18T14:38:28;98865.20000000001;;;-1.65;100
17950;BME280;9100;48.700;9.316;2022-12-18T14:39:13;98875.2;;;-1.65;100
17950;BME280;9100;48.700;9.316;2022-12-18T14:40:02;98863.8;;;-1.71;100
17950;BME280;9100;48.700;9.316;2022-12-18T14:40:11;98871.1;;;-1.66;100
17950;BME280;9100;48.700;9.316;2022-12-18T14:41:12;98872.79999999999;;;-1.67;100
17950;BME280;9100;48.700;9.316;2022-12-18T14:42:11;98864.4;;;-1.67;100
17950;BME280;9100;48.700;9.316;2022-12-18T14:43:11;98863.59999999999;;;-1.68;100
17950;BME280;9100;48.700;9.316;2022-12-18T14:44:12;98875.40000000001;;;-1.68;100
17950;BME280;9100;48.700;9.316;2022-12-18T14:45:35;98869.4;;;-1.67;100
17950;BME280;9100;48.700;9.316;2022-12-18T14:45:43;98873.7;;;-1.68;100
17950;BME280;9100;48.700;9.316;2022-12-18T14:46:25;98867.8;;;-1.68;100
17950;BME280;9100;48.700;9.316;2022-12-18T14:47:13;98861.2;;;-1.71;100
17950;BME280;9100;48.700;9.316;2022-12-18T14:48:13;98867.1;;;-1.7;100
17950;BME280;9100;48.700;9.316;2022-12-18T14:49:18;98864.59999999999;;;-1.7;100
17950;BME280;9100;48.700;9.316;2022-12-18T14:50:02;98861.40000000001;;;-1.74;100
17950;BME280;9100;48.700;9.316;2022-12-18T14:50:12;98866.4;;;-1.74;100
17950;BME280;9100;48.700;9.316;2022-12-18T14:51:15;98863.8;;;-1.72;100
17950;BME280;9100;48.700;9.316;2022-12-18T14:52:17;98858.90000000001;;;-1.74;100
17950;BME280;9100;48.700;9.316;2022-12-18T14:53:19;98866.4;;;-1.72;100
17950;BME280;9100;48.700;9.316;2022-12-18T14:54:14;98865.59999999999;;;-1.74;100